KPHD/PHD METAR and TAF weather

Enter ICAO airport designator
Station Type Date Time Source
KPHD METAR 2018/12/17 16:53 UTC NOAA

KPHD 171653Z AUTO 29007KT 10SM FEW023 04/M02 A3003 RMK AO2 SLP177 T00441017


Station Type Date Time Source
KPHD Decoded METAR 2018/12/17 16:53 UTC NOAA

NEW PHILADELPHIA CLEVER FLD, OH, United States (KPHD) 40-28N 81-25W 272M
Dec 17, 2018 - 11:53 AM EST / 2018.12.17 1653 UTC
Wind: from the WNW (290 degrees) at 8 MPH (7 KT):0
Visibility: 10 mile(s):0
Sky conditions: mostly clear
Temperature: 39.9 F (4.4 C)
Dew Point: 28.9 F (-1.7 C)
Relative Humidity: 64%
Pressure (altimeter): 30.03 in. Hg (1016 hPa)
ob: KPHD 171653Z AUTO 29007KT 10SM FEW023 04/M02 A3003 RMK AO2 SLP177 T00441017
cycle: 17

Station Type Date Time Source
KPHD TAF UTC NOAA

Error!


Example: see airport list